createdAt,value
2023-02-18T00:01:51.311Z,102028.69
2023-02-18T00:04:19.222Z,102027.66
2023-02-18T00:06:47.785Z,102033.78
2023-02-18T00:09:15.741Z,102031.69
2023-02-18T00:11:43.834Z,102035.31
2023-02-18T00:14:14.942Z,102032.16
2023-02-18T00:16:44.836Z,102024.63
2023-02-18T00:19:16.225Z,102025.91
2023-02-18T00:21:45.454Z,102019.50
2023-02-18T00:24:15.654Z,102021.44
2023-02-18T00:26:44.796Z,102023.63
2023-02-18T00:29:13.143Z,102018.75
2023-02-18T00:31:43.044Z,102015.63
2023-02-18T00:34:13.141Z,102025.06
2023-02-18T00:36:41.982Z,102021.56
2023-02-18T00:39:11.700Z,102025.72
2023-02-18T00:42:05.873Z,102027.28
2023-02-18T00:44:33.726Z,102036.28
2023-02-18T00:47:01.903Z,102030.13
2023-02-18T00:49:29.975Z,102029.41
2023-02-18T00:51:58.172Z,102030.03
2023-02-18T00:54:26.124Z,102025.63
2023-02-18T00:56:54.321Z,102021.09
2023-02-18T00:59:22.211Z,102016.66
2023-02-18T01:01:50.471Z,102016.75
2023-02-18T01:04:18.800Z,102018.50
2023-02-18T01:06:47.323Z,102024.94
2023-02-18T01:09:15.216Z,102020.72
2023-02-18T01:11:43.462Z,102017.19
2023-02-18T01:14:11.467Z,102021.09
2023-02-18T01:16:39.922Z,102025.25
2023-02-18T01:19:09.547Z,102024.63
2023-02-18T01:21:39.630Z,102016.09
2023-02-18T01:24:07.647Z,102021.94
2023-02-18T01:26:36.781Z,102012.06
2023-02-18T01:29:04.628Z,102010.19
2023-02-18T01:31:33.311Z,102000.97
2023-02-18T01:34:01.252Z,101999.56
2023-02-18T01:36:30.638Z,102000.41
2023-02-18T01:38:58.495Z,101994.63
2023-02-18T01:41:26.667Z,101999.94
2023-02-18T01:44:16.636Z,101992.72
2023-02-18T01:46:47.270Z,101993.84
2023-02-18T01:49:24.080Z,101992.97
2023-02-18T01:51:57.287Z,101993.41
2023-02-18T01:54:50.601Z,101992.59
2023-02-18T01:57:24.279Z,101989.97
2023-02-18T02:00:00.139Z,102004.63
2023-02-18T02:02:35.695Z,101997.06
2023-02-18T02:05:04.061Z,101985.44
2023-02-18T02:07:32.421Z,101990.75
2023-02-18T02:10:00.900Z,101994.03
2023-02-18T02:12:47.777Z,101991.38
2023-02-18T02:15:34.041Z,101986.03
2023-02-18T02:18:23.797Z,101992.72
2023-02-18T02:21:13.221Z,102002.06
2023-02-18T02:24:20.010Z,102001.06
2023-02-18T02:26:59.917Z,101996.09
2023-02-18T02:29:49.959Z,101993.47
2023-02-18T02:32:37.500Z,101985.81
2023-02-18T02:35:14.560Z,101988.78
2023-02-18T02:37:53.550Z,101988.56
2023-02-18T02:40:55.392Z,101979.94
2023-02-18T02:43:38.440Z,101979.56
2023-02-18T02:46:23.775Z,101973.81
2023-02-18T02:49:17.856Z,101973.63
2023-02-18T02:51:48.562Z,101967.22
2023-02-18T02:54:24.133Z,101966.25
2023-02-18T02:57:30.084Z,101967.97
2023-02-18T03:00:12.773Z,101956.31
2023-02-18T03:03:00.535Z,101956.22
2023-02-18T03:06:00.949Z,101963.63
2023-02-18T03:08:49.746Z,101954.88
2023-02-18T03:11:18.835Z,101954.38
2023-02-18T03:14:10.590Z,101953.22
2023-02-18T03:16:57.646Z,101952.91
2023-02-18T03:19:39.617Z,101955.81
2023-02-18T03:22:32.439Z,101950.06
2023-02-18T03:25:05.526Z,101945.78
2023-02-18T03:27:58.118Z,101949.41
2023-02-18T03:30:33.361Z,101955.59
2023-02-18T03:33:06.299Z,101960.78
2023-02-18T03:35:37.345Z,101960.44
2023-02-18T03:38:21.192Z,101953.28
2023-02-18T03:40:49.667Z,101957.50
2023-02-18T03:43:18.283Z,101950.81
2023-02-18T03:45:46.944Z,101953.63
2023-02-18T03:48:14.797Z,101956.09
2023-02-18T03:50:42.955Z,101951.56
2023-02-18T03:53:10.779Z,101953.03
2023-02-18T03:55:38.914Z,101954.78
2023-02-18T03:58:06.987Z,101950.81
2023-02-18T04:00:35.463Z,101961.09
2023-02-18T04:03:03.570Z,101958.13
2023-02-18T04:05:32.055Z,101953.72
2023-02-18T04:07:59.901Z,101955.56
2023-02-18T04:10:28.221Z,101949.53
2023-02-18T04:12:56.104Z,101954.28
2023-02-18T04:15:24.380Z,101958.75
2023-02-18T04:17:52.609Z,101958.38
2023-02-18T04:20:20.849Z,101960.84
2023-02-18T04:22:49.180Z,101960.53
2023-02-18T04:25:17.789Z,101960.31
2023-02-18T04:27:45.719Z,101961.03
2023-02-18T04:30:15.142Z,101962.72
2023-02-18T04:32:44.419Z,101973.53
2023-02-18T04:35:12.722Z,101965.31
2023-02-18T04:37:40.579Z,101967.78
2023-02-18T04:40:09.560Z,101967.38
2023-02-18T04:42:37.770Z,101975.13
2023-02-18T04:45:06.518Z,101981.53
2023-02-18T04:47:34.382Z,101976.34
2023-02-18T04:50:02.800Z,101972.41
2023-02-18T04:52:30.700Z,101972.06
2023-02-18T04:54:59.556Z,101966.59
2023-02-18T04:57:27.418Z,101975.78
2023-02-18T04:59:55.610Z,101973.81
2023-02-18T05:02:23.541Z,101973.97
2023-02-18T05:04:51.794Z,101972.50
2023-02-18T05:07:19.636Z,101979.38
2023-02-18T05:09:47.998Z,101976.69
2023-02-18T05:12:15.866Z,101980.91
2023-02-18T05:14:44.126Z,101979.91
2023-02-18T05:17:12.049Z,101983.34
2023-02-18T05:19:40.363Z,101985.50
2023-02-18T05:22:08.386Z,101978.38
2023-02-18T05:24:36.552Z,101978.91
2023-02-18T05:27:04.478Z,101974.13
2023-02-18T05:29:32.707Z,101977.13
2023-02-18T05:32:00.584Z,101972.97
2023-02-18T05:34:28.840Z,101983.44
2023-02-18T05:36:56.672Z,101981.47
2023-02-18T05:39:24.921Z,101983.06
2023-02-18T05:41:52.796Z,101985.28
2023-02-18T05:44:30.559Z,101984.47
2023-02-18T05:47:11.048Z,101983.19
2023-02-18T05:49:42.197Z,101983.00
2023-02-18T05:52:11.399Z,101983.63
2023-02-18T05:54:40.223Z,101988.28
2023-02-18T05:57:08.425Z,101987.81
2023-02-18T05:59:36.811Z,101995.03
2023-02-18T06:02:04.759Z,101995.91
2023-02-18T06:04:33.035Z,102002.38
2023-02-18T06:07:00.926Z,102001.19
2023-02-18T06:09:29.185Z,102011.53
2023-02-18T06:11:57.346Z,102018.19
2023-02-18T06:14:25.686Z,102004.84
2023-02-18T06:16:53.615Z,102006.06
2023-02-18T06:19:21.805Z,102007.59
2023-02-18T06:21:49.835Z,102007.81
2023-02-18T06:24:18.019Z,102016.16
2023-02-18T06:26:45.863Z,102009.38
2023-02-18T06:29:14.047Z,102014.28
2023-02-18T06:31:42.030Z,102023.66
2023-02-18T06:34:10.314Z,102021.00
2023-02-18T06:36:38.330Z,102025.53
2023-02-18T06:39:06.866Z,102023.75
2023-02-18T06:41:35.271Z,102033.78
2023-02-18T06:44:03.685Z,102025.28
2023-02-18T06:46:31.606Z,102021.19
2023-02-18T06:49:00.186Z,102023.00
2023-02-18T06:51:28.580Z,102024.16
2023-02-18T06:53:56.751Z,102024.94
2023-02-18T06:56:24.652Z,102028.75
2023-02-18T06:58:52.917Z,102031.22
2023-02-18T07:01:20.749Z,102028.47
2023-02-18T07:03:50.264Z,102035.78
2023-02-18T07:06:18.467Z,102024.09
2023-02-18T07:08:46.577Z,102035.63
2023-02-18T07:11:14.578Z,102036.75
2023-02-18T07:13:42.820Z,102032.13
2023-02-18T07:16:10.990Z,102029.59
2023-02-18T07:18:39.611Z,102029.63
2023-02-18T07:21:07.698Z,102024.16
2023-02-18T07:23:35.885Z,102025.88
2023-02-18T07:26:09.484Z,102036.69
2023-02-18T07:28:38.553Z,102045.06
2023-02-18T07:31:07.101Z,102045.31
2023-02-18T07:33:35.428Z,102053.16
2023-02-18T07:36:04.495Z,102053.97
2023-02-18T07:38:32.966Z,102051.38
2023-02-18T07:41:01.041Z,102054.53
2023-02-18T07:43:29.231Z,102046.06
2023-02-18T07:45:57.402Z,102046.75
2023-02-18T07:48:26.220Z,102047.69
2023-02-18T07:50:54.193Z,102057.22
2023-02-18T07:53:22.520Z,102042.53
2023-02-18T07:55:50.702Z,102050.13
2023-02-18T07:58:20.408Z,102042.13
2023-02-18T08:00:49.749Z,102048.28
2023-02-18T08:03:19.598Z,102043.66
2023-02-18T08:05:52.144Z,102049.81
2023-02-18T08:08:24.127Z,102048.72
2023-02-18T08:10:53.636Z,102059.09
2023-02-18T08:13:22.378Z,102059.78
2023-02-18T08:15:50.718Z,102054.66
2023-02-18T08:18:21.570Z,102053.81
2023-02-18T08:20:51.970Z,102052.84
2023-02-18T08:23:22.475Z,102051.09
2023-02-18T08:25:52.044Z,102046.00
2023-02-18T08:28:24.651Z,102053.97
2023-02-18T08:30:54.925Z,102062.09
2023-02-18T08:33:24.601Z,102050.50
2023-02-18T08:35:56.353Z,102046.00
2023-02-18T08:38:25.741Z,102046.28
2023-02-18T08:41:05.562Z,102047.63
2023-02-18T08:43:34.632Z,102049.75
2023-02-18T08:46:03.402Z,102054.03
2023-02-18T08:48:31.666Z,102048.97
2023-02-18T08:51:00.372Z,102050.38
2023-02-18T08:53:28.510Z,102050.50
2023-02-18T08:55:56.373Z,102049.22
2023-02-18T08:58:24.705Z,102048.47
2023-02-18T09:00:52.545Z,102045.19
2023-02-18T09:03:20.712Z,102042.31
2023-02-18T09:05:48.542Z,102054.03
2023-02-18T09:08:16.727Z,102048.69
2023-02-18T09:10:46.299Z,102049.69
2023-02-18T09:13:14.868Z,102054.50
2023-02-18T09:15:42.755Z,102041.66
2023-02-18T09:18:11.085Z,102045.34
2023-02-18T09:20:40.584Z,102044.16
2023-02-18T09:23:08.863Z,102041.97
2023-02-18T09:25:40.581Z,102042.56
2023-02-18T09:28:08.891Z,102041.75
2023-02-18T09:30:36.871Z,102049.94
2023-02-18T09:33:05.633Z,102047.00
2023-02-18T09:35:33.567Z,102043.31
2023-02-18T09:38:01.835Z,102043.31
2023-02-18T09:40:33.402Z,102039.06
2023-02-18T09:43:02.297Z,102040.03
2023-02-18T09:45:30.726Z,102039.34
2023-02-18T09:48:00.200Z,102030.09
2023-02-18T09:50:32.214Z,102039.44
2023-02-18T09:53:03.678Z,102036.28
2023-02-18T09:55:39.572Z,102031.31
2023-02-18T09:58:14.557Z,102018.19
2023-02-18T10:01:19.197Z,102022.38
2023-02-18T10:03:47.791Z,102025.75
2023-02-18T10:06:26.541Z,102015.88
2023-02-18T10:08:55.822Z,102022.66
2023-02-18T10:11:42.822Z,102012.59
2023-02-18T10:14:13.925Z,102021.13
2023-02-18T10:16:44.569Z,102020.75
2023-02-18T10:19:31.048Z,102022.91
2023-02-18T10:22:01.367Z,102026.53
2023-02-18T10:24:29.390Z,102020.25
2023-02-18T10:26:58.474Z,102024.06
2023-02-18T10:29:27.850Z,102021.53
2023-02-18T10:32:04.434Z,102013.00
2023-02-18T10:34:52.338Z,102013.16
2023-02-18T10:37:55.027Z,102002.75
2023-02-18T10:40:50.790Z,102004.56
2023-02-18T10:43:21.456Z,102008.47
2023-02-18T10:46:01.360Z,102008.81
2023-02-18T10:48:41.521Z,102009.84
2023-02-18T10:51:32.313Z,102006.97
2023-02-18T10:54:01.136Z,102000.63
2023-02-18T10:56:49.062Z,101997.91
2023-02-18T10:59:32.516Z,101993.34
2023-02-18T11:02:14.030Z,101984.84
2023-02-18T11:04:45.721Z,101982.94
2023-02-18T11:07:22.233Z,101982.75
2023-02-18T11:09:54.025Z,101973.44
2023-02-18T11:12:46.435Z,101965.66
2023-02-18T11:15:14.207Z,101959.81
2023-02-18T11:17:44.810Z,101957.44
2023-02-18T11:20:33.640Z,101953.66
2023-02-18T11:23:06.441Z,101959.00
2023-02-18T11:25:36.944Z,101956.31
2023-02-18T11:28:23.276Z,101951.59
2023-02-18T11:30:56.859Z,101943.84
2023-02-18T11:33:33.938Z,101945.19
2023-02-18T11:36:18.267Z,101940.66
2023-02-18T11:38:50.316Z,101939.91
2023-02-18T11:41:22.945Z,101927.88
2023-02-18T11:43:54.339Z,101924.06
2023-02-18T11:46:25.614Z,101922.56
2023-02-18T11:48:54.468Z,101921.53
2023-02-18T11:51:28.447Z,101913.75
2023-02-18T11:54:05.627Z,101911.50
2023-02-18T11:56:35.833Z,101907.38
2023-02-18T11:59:05.459Z,101903.63
2023-02-18T12:01:55.272Z,101900.25
2023-02-18T12:04:40.943Z,101898.72
2023-02-18T12:07:25.486Z,101890.56
2023-02-18T12:09:59.093Z,101890.16
2023-02-18T12:12:33.785Z,101887.34
2023-02-18T12:15:02.143Z,101895.09
2023-02-18T12:18:05.234Z,101882.44
2023-02-18T12:20:51.297Z,101880.50
2023-02-18T12:23:47.085Z,101867.31
2023-02-18T12:26:25.181Z,101866.31
2023-02-18T12:29:22.758Z,101854.06
2023-02-18T12:32:17.497Z,101857.03
2023-02-18T12:34:59.984Z,101840.13
2023-02-18T12:38:01.395Z,101844.66
2023-02-18T12:40:48.537Z,101845.69
2023-02-18T12:43:31.414Z,101844.59
2023-02-18T12:46:20.332Z,101833.78
2023-02-18T12:49:23.624Z,101833.47
2023-02-18T12:52:07.140Z,101827.25
2023-02-18T12:55:12.534Z,101827.03
2023-02-18T12:57:48.637Z,101816.44
2023-02-18T13:00:52.233Z,101812.44
2023-02-18T13:03:47.199Z,101807.09
2023-02-18T13:06:41.363Z,101814.06
2023-02-18T13:09:35.203Z,101801.81
2023-02-18T13:12:23.088Z,101800.88
2023-02-18T13:15:00.566Z,101794.00
2023-02-18T13:17:35.940Z,101792.06
2023-02-18T13:20:14.581Z,101789.44
2023-02-18T13:22:44.343Z,101782.59
2023-02-18T13:25:14.379Z,101787.41
2023-02-18T13:27:54.328Z,101792.06
2023-02-18T13:30:51.091Z,101779.75
2023-02-18T13:33:37.602Z,101770.63
2023-02-18T13:36:11.233Z,101768.94
2023-02-18T13:39:11.794Z,101766.75
2023-02-18T13:41:42.535Z,101764.81
2023-02-18T13:44:23.527Z,101752.47
2023-02-18T13:46:54.303Z,101755.03
2023-02-18T13:49:32.420Z,101752.00
2023-02-18T13:52:02.173Z,101753.53
2023-02-18T13:54:45.204Z,101744.25
2023-02-18T13:57:21.178Z,101749.16
2023-02-18T14:00:02.383Z,101737.56
2023-02-18T14:02:35.759Z,101737.28
2023-02-18T14:05:21.290Z,101729.50
2023-02-18T14:08:06.550Z,101731.34
2023-02-18T14:10:37.198Z,101732.53
2023-02-18T14:13:23.092Z,101729.06
2023-02-18T14:15:57.995Z,101725.44
2023-02-18T14:18:45.746Z,101721.47
2023-02-18T14:21:14.132Z,101718.88
2023-02-18T14:23:52.131Z,101716.91
2023-02-18T14:26:34.503Z,101713.09
2023-02-18T14:29:19.094Z,101705.63
2023-02-18T14:31:54.908Z,101699.16
2023-02-18T14:35:04.294Z,101698.66
2023-02-18T14:37:48.533Z,101698.88
2023-02-18T14:40:27.035Z,101694.63
2023-02-18T14:43:01.368Z,101691.13
2023-02-18T14:46:15.495Z,101687.69
2023-02-18T14:49:03.309Z,101680.91
2023-02-18T14:51:34.322Z,101675.47
2023-02-18T14:54:06.933Z,101681.84
2023-02-18T14:56:52.044Z,101674.41
2023-02-18T14:59:22.759Z,101674.13
2023-02-18T15:01:55.673Z,101669.25
2023-02-18T15:04:26.302Z,101673.03
2023-02-18T15:07:05.806Z,101674.16
2023-02-18T15:09:34.075Z,101666.53
2023-02-18T15:12:05.875Z,101668.63
2023-02-18T15:14:37.884Z,101669.25
2023-02-18T15:17:11.517Z,101671.31
2023-02-18T15:19:43.774Z,101674.16
2023-02-18T15:22:23.682Z,101674.91
2023-02-18T15:24:54.761Z,101674.88
2023-02-18T15:27:32.375Z,101675.41
2023-02-18T15:30:29.259Z,101670.63
2023-02-18T15:33:01.171Z,101666.38
2023-02-18T15:35:33.279Z,101666.75
2023-02-18T15:38:01.770Z,101659.56
2023-02-18T15:40:33.600Z,101668.28
2023-02-18T15:43:04.448Z,101665.88
2023-02-18T15:45:45.257Z,101664.97
2023-02-18T15:48:22.486Z,101661.78
2023-02-18T15:50:54.699Z,101658.06
2023-02-18T15:53:25.277Z,101671.84
2023-02-18T15:55:54.872Z,101672.13
2023-02-18T15:58:28.727Z,101664.13
2023-02-18T16:01:00.418Z,101668.81
2023-02-18T16:03:52.863Z,101666.72
2023-02-18T16:06:28.858Z,101662.50
2023-02-18T16:09:12.720Z,101663.59
2023-02-18T16:11:45.862Z,101659.59
2023-02-18T16:14:34.464Z,101661.66
2023-02-18T16:17:19.572Z,101660.34
2023-02-18T16:20:04.426Z,101653.16
2023-02-18T16:22:37.028Z,101652.22
2023-02-18T16:25:10.668Z,101647.03
2023-02-18T16:27:53.102Z,101648.63
2023-02-18T16:30:24.527Z,101649.09
2023-02-18T16:32:54.480Z,101657.16
2023-02-18T16:35:23.919Z,101653.19
2023-02-18T16:37:53.935Z,101644.34
2023-02-18T16:40:23.763Z,101649.41
2023-02-18T16:42:53.434Z,101645.66
2023-02-18T16:45:35.030Z,101629.78
2023-02-18T16:48:05.803Z,101638.97
2023-02-18T16:50:34.400Z,101639.66
2023-02-18T16:53:02.730Z,101642.34
2023-02-18T16:55:31.344Z,101643.75
2023-02-18T16:57:59.586Z,101645.31
2023-02-18T17:00:27.496Z,101638.81
2023-02-18T17:02:59.340Z,101646.41
2023-02-18T17:05:31.297Z,101652.03
2023-02-18T17:08:14.770Z,101657.00
2023-02-18T17:10:43.050Z,101652.28
2023-02-18T17:13:23.360Z,101655.88
2023-02-18T17:15:54.026Z,101647.91
2023-02-18T17:18:24.335Z,101650.09
2023-02-18T17:20:53.674Z,101647.34
2023-02-18T17:23:24.211Z,101647.78
2023-02-18T17:25:53.678Z,101646.47
2023-02-18T17:28:22.866Z,101641.28
2023-02-18T17:30:57.813Z,101642.91
2023-02-18T17:33:26.360Z,101646.78
2023-02-18T17:35:54.350Z,101647.31
2023-02-18T17:38:22.608Z,101653.66
2023-02-18T17:40:50.868Z,101661.47
2023-02-18T17:43:19.446Z,101659.31
2023-02-18T17:45:50.959Z,101666.38
2023-02-18T17:50:47.657Z,101662.63
2023-02-18T17:53:17.253Z,101656.28
2023-02-18T17:55:47.262Z,101656.47
2023-02-18T17:58:16.359Z,101663.41
2023-02-18T18:00:47.764Z,101661.88
2023-02-18T18:03:16.619Z,101661.34
2023-02-18T18:05:48.948Z,101662.97
2023-02-18T18:08:18.938Z,101667.00
2023-02-18T18:10:52.777Z,101667.91
2023-02-18T18:13:34.769Z,101668.69
2023-02-18T18:16:02.739Z,101672.22
2023-02-18T18:18:31.178Z,101658.50
2023-02-18T18:21:01.895Z,101658.34
2023-02-18T18:23:30.174Z,101661.59
2023-02-18T18:25:58.963Z,101657.50
2023-02-18T18:28:27.769Z,101665.16
2023-02-18T18:30:57.224Z,101668.63
2023-02-18T18:33:31.823Z,101670.50
2023-02-18T18:36:01.367Z,101663.03
2023-02-18T18:38:30.093Z,101668.47
2023-02-18T18:40:58.385Z,101658.66
2023-02-18T18:43:32.491Z,101654.69
2023-02-18T18:46:00.945Z,101662.16
2023-02-18T18:48:29.239Z,101655.38
2023-02-18T18:50:58.045Z,101656.94
2023-02-18T18:53:31.551Z,101657.34
2023-02-18T18:56:02.789Z,101661.22
2023-02-18T18:58:31.759Z,101661.25
2023-02-18T19:01:02.994Z,101655.53
2023-02-18T19:03:34.037Z,101651.00
2023-02-18T19:06:01.963Z,101665.75
2023-02-18T19:08:32.098Z,101660.09
2023-02-18T19:11:00.033Z,101659.50
2023-02-18T19:13:31.152Z,101660.50
2023-02-18T19:16:18.108Z,101659.09
2023-02-18T19:18:47.303Z,101651.22
2023-02-18T19:21:15.790Z,101650.25
2023-02-18T19:23:44.235Z,101649.00
2023-02-18T19:26:14.457Z,101653.63
2023-02-18T19:28:43.480Z,101647.13
2023-02-18T19:31:11.914Z,101653.66
2023-02-18T19:33:40.359Z,101652.56
2023-02-18T19:36:11.138Z,101659.81
2023-02-18T19:38:39.703Z,101656.41
2023-02-18T19:41:12.769Z,101657.97
2023-02-18T19:43:42.968Z,101653.94
2023-02-18T19:46:13.549Z,101660.13
2023-02-18T19:48:42.579Z,101664.13
2023-02-18T19:51:10.733Z,101661.38
2023-02-18T19:53:39.420Z,101664.28
2023-02-18T19:56:08.127Z,101663.47
2023-02-18T19:58:37.431Z,101668.81
2023-02-18T20:01:13.995Z,101667.84
2023-02-18T20:03:43.380Z,101666.75
2023-02-18T20:06:21.961Z,101668.25
2023-02-18T20:08:50.271Z,101668.25
2023-02-18T20:11:18.210Z,101674.66
2023-02-18T20:13:48.012Z,101679.25
2023-02-18T20:16:15.942Z,101665.38
2023-02-18T20:18:44.169Z,101670.13
2023-02-18T20:21:12.532Z,101669.66
2023-02-18T20:23:41.378Z,101657.63
2023-02-18T20:26:11.296Z,101663.78
2023-02-18T20:28:39.571Z,101667.03
2023-02-18T20:31:10.155Z,101669.16
2023-02-18T20:33:39.237Z,101666.03
2023-02-18T20:36:08.785Z,101663.56
2023-02-18T20:38:38.001Z,101666.59
2023-02-18T20:41:08.854Z,101665.28
2023-02-18T20:58:04.830Z,101672.81
2023-02-18T21:00:33.325Z,101679.91
2023-02-18T21:03:01.342Z,101674.03
2023-02-18T21:05:29.746Z,101669.88
2023-02-18T21:07:57.758Z,101674.09
2023-02-18T21:10:26.097Z,101676.78
2023-02-18T21:12:53.986Z,101682.06
2023-02-18T21:15:22.209Z,101674.69
2023-02-18T21:17:50.125Z,101673.88
2023-02-18T21:20:20.862Z,101678.91
2023-02-18T21:22:48.806Z,101677.03
2023-02-18T21:25:17.189Z,101678.16
2023-02-18T21:27:45.046Z,101677.66
2023-02-18T21:30:13.892Z,101681.94
2023-02-18T21:32:41.832Z,101675.22
2023-02-18T21:35:10.703Z,101674.44
2023-02-18T21:37:38.654Z,101680.00
2023-02-18T21:40:07.369Z,101686.41
2023-02-18T21:42:35.430Z,101682.41
2023-02-18T21:45:04.551Z,101687.75
2023-02-18T21:47:32.519Z,101691.25
2023-02-18T21:50:00.790Z,101682.22
2023-02-18T21:52:28.832Z,101689.09
2023-02-18T21:54:57.140Z,101681.94
2023-02-18T21:57:25.316Z,101681.94
2023-02-18T21:59:53.593Z,101672.31
2023-02-18T22:02:26.598Z,101676.53
2023-02-18T22:04:55.148Z,101674.72
2023-02-18T22:07:27.964Z,101674.16
2023-02-18T22:09:56.570Z,101673.91
2023-02-18T22:12:25.226Z,101678.69
2023-02-18T22:14:53.727Z,101677.34
2023-02-18T22:17:21.844Z,101675.22
2023-02-18T22:19:50.113Z,101679.72
2023-02-18T22:22:18.299Z,101684.00
2023-02-18T22:24:46.607Z,101680.19
2023-02-18T22:27:14.898Z,101679.41
2023-02-18T22:29:43.204Z,101685.06
2023-02-18T22:32:11.222Z,101680.69
2023-02-18T22:34:39.946Z,101688.88
2023-02-18T22:37:08.411Z,101687.09
2023-02-18T22:39:37.010Z,101686.00
2023-02-18T22:42:05.534Z,101689.94
2023-02-18T22:44:33.896Z,101686.84
2023-02-18T22:47:01.858Z,101691.28
2023-02-18T22:49:30.250Z,101691.66
2023-02-18T22:51:58.112Z,101691.09
2023-02-18T22:54:26.662Z,101685.03
2023-02-18T22:56:55.019Z,101686.22
2023-02-18T22:59:23.484Z,101688.38
2023-02-18T23:01:53.291Z,101689.16
2023-02-18T23:04:21.977Z,101681.16
2023-02-18T23:06:50.619Z,101681.72
2023-02-18T23:09:24.678Z,101680.16
2023-02-18T23:11:55.369Z,101680.19
2023-02-18T23:14:24.910Z,101688.69
2023-02-18T23:17:14.706Z,101683.91
2023-02-18T23:19:54.196Z,101675.19
2023-02-18T23:22:33.791Z,101677.09
2023-02-18T23:25:02.586Z,101683.41
2023-02-18T23:27:30.653Z,101685.06
2023-02-18T23:29:58.978Z,101678.66
2023-02-18T23:32:29.089Z,101680.81
2023-02-18T23:34:57.454Z,101670.34
2023-02-18T23:37:45.293Z,101663.09
2023-02-18T23:40:14.997Z,101663.34
2023-02-18T23:42:43.406Z,101662.31
2023-02-18T23:45:11.348Z,101660.75
2023-02-18T23:47:39.595Z,101664.81
2023-02-18T23:50:07.666Z,101665.09
2023-02-18T23:52:35.941Z,101660.72
2023-02-18T23:55:04.101Z,101663.97
2023-02-18T23:57:33.159Z,101661.78
